Time;durP1;ratioP1;P1;durP2;ratioP2;P2;SDS_P1;SDS_P2;PMS_P1;PMS_P2;Temp;Humidity;BMP_temperature;BMP_pressure;BME280_temperature;BME280_humidity;BME280_pressure;Samples;Min_cycle;Max_cycle;Signal;HPM_P1;HPM_P2
2022/12/22 03:27:21;;;;;;;;;;;6.60;99.90;;;;;;4872299;29;20222;-74
2022/12/22 03:29:47;;;;;;;;;;;6.60;99.90;;;;;;4865912;29;20269;-74
2022/12/22 03:32:12;;;;;;;;;;;6.60;99.90;;;;;;4838586;29;19945;-74
2022/12/22 03:34:38;;;;;;;;;;;6.60;99.90;;;;;;4856470;29;20449;-74
2022/12/22 03:37:03;;;;;;;;;;;6.50;99.90;;;;;;4848372;29;19928;-76
2022/12/22 03:39:29;;;;;;;;;;;6.50;99.90;;;;;;4855636;29;19999;-76
2022/12/22 03:47:23;;;;;;;;;;;6.50;99.90;;;;;;4856603;29;19935;-76
2022/12/22 03:49:49;;;;;;;;;;;6.50;99.90;;;;;;4871505;29;20372;-76
2022/12/22 03:52:14;;;;;;;;;;;6.50;99.90;;;;;;4840955;29;20417;-76
2022/12/22 03:54:40;;;;;;;;;;;6.50;99.90;;;;;;4857358;29;19949;-76
2022/12/22 03:57:05;;;;;;;;;;;6.50;99.90;;;;;;4856503;29;19924;-76
2022/12/22 03:59:31;;;;;;;;;;;6.50;99.90;;;;;;4842514;29;19974;-76
2022/12/22 04:01:56;;;;;;;;;;;6.50;99.90;;;;;;4856604;29;20304;-76
2022/12/22 04:04:24;;;;;;;;;;;6.50;99.90;;;;;;4872396;29;19934;-77
2022/12/22 04:06:49;;;;;;;;;;;6.40;99.90;;;;;;4872411;29;20392;-77
2022/12/22 04:09:15;;;;;;;;;;;6.40;99.90;;;;;;4853723;29;20046;-76
2022/12/22 04:14:25;;;;;;;;;;;6.40;99.90;;;;;;4873113;29;20444;-76
2022/12/22 04:16:50;;;;;;;;;;;6.40;99.90;;;;;;4855667;29;19924;-76
2022/12/22 04:19:16;;;;;;;;;;;6.40;99.90;;;;;;4856387;29;20007;-76
2022/12/22 04:21:42;;;;;;;;;;;6.40;99.90;;;;;;4855978;29;19924;-76
2022/12/22 04:24:08;;;;;;;;;;;6.40;99.90;;;;;;4840759;29;19958;-76
2022/12/22 04:26:33;;;;;;;;;;;6.40;99.90;;;;;;4853817;29;20313;-76
2022/12/22 04:28:59;;;;;;;;;;;6.40;99.90;;;;;;4867057;29;19980;-76
2022/12/22 04:31:25;;;;;;;;;;;6.40;99.90;;;;;;4845994;29;20995;-76
2022/12/22 04:33:50;;;;;;;;;;;6.40;99.90;;;;;;4871064;29;19923;-76
2022/12/22 04:36:16;;;;;;;;;;;6.40;99.90;;;;;;4871516;29;19928;-74
2022/12/22 04:38:42;;;;;;;;;;;6.40;99.90;;;;;;4856237;29;19976;-74
2022/12/22 04:41:07;;;;;;;;;;;6.40;99.90;;;;;;4840389;29;19924;-74
2022/12/22 04:43:33;;;;;;;;;;;6.40;99.90;;;;;;4856066;29;19934;-74
2022/12/22 04:45:59;;;;;;;;;;;6.40;99.90;;;;;;4871613;29;19951;-74
2022/12/22 04:48:25;;;;;;;;;;;6.40;99.90;;;;;;4840436;29;19928;-74
2022/12/22 04:50:52;;;;;;;;;;;6.40;99.90;;;;;;4856201;29;20283;-74
2022/12/22 04:53:18;;;;;;;;;;;6.30;99.90;;;;;;4862065;29;19967;-74
2022/12/22 04:55:53;;;;;;;;;;;6.30;99.90;;;;;;4867929;29;19978;-74
2022/12/22 04:58:19;;;;;;;;;;;6.30;99.90;;;;;;4855860;29;19976;-74
2022/12/22 05:00:45;;;;;;;;;;;6.30;99.90;;;;;;4854207;29;20480;-74
2022/12/22 05:03:10;;;;;;;;;;;6.30;99.90;;;;;;4840926;29;20448;-74
2022/12/22 05:05:36;;;;;;;;;;;6.30;99.90;;;;;;4865368;29;19923;-74
2022/12/22 05:08:02;;;;;;;;;;;6.30;99.90;;;;;;4871336;29;19928;-74
2022/12/22 05:10:28;;;;;;;;;;;6.30;99.90;;;;;;4848340;29;20285;-74
2022/12/22 05:12:53;;;;;;;;;;;6.30;99.90;;;;;;4852011;29;19924;-74
2022/12/22 05:15:20;;;;;;;;;;;6.40;99.90;;;;;;4867613;29;19963;-74
2022/12/22 05:17:45;;;;;;;;;;;6.40;99.90;;;;;;4871315;29;20604;-74
2022/12/22 05:20:11;;;;;;;;;;;6.40;99.90;;;;;;4845257;29;20002;-74
2022/12/22 05:22:37;;;;;;;;;;;6.40;99.90;;;;;;4853349;29;20293;-74
2022/12/22 05:25:02;;;;;;;;;;;6.40;99.90;;;;;;4871216;29;19939;-74
2022/12/22 05:27:28;;;;;;;;;;;6.40;99.90;;;;;;4854703;29;19924;-74
2022/12/22 05:29:54;;;;;;;;;;;6.50;99.90;;;;;;4843714;29;19951;-74
2022/12/22 05:32:19;;;;;;;;;;;6.50;99.90;;;;;;4853120;29;19971;-74
2022/12/22 05:34:45;;;;;;;;;;;6.50;99.90;;;;;;4853093;29;20050;-74
2022/12/22 05:37:10;;;;;;;;;;;6.50;99.90;;;;;;4868160;29;20177;-74
2022/12/22 05:39:36;;;;;;;;;;;6.50;99.90;;;;;;4855601;29;20422;-74
2022/12/22 05:42:01;;;;;;;;;;;6.50;99.90;;;;;;4851769;29;19931;-73
2022/12/22 05:44:27;;;;;;;;;;;6.50;99.90;;;;;;4836722;29;19935;-74
2022/12/22 05:46:52;;;;;;;;;;;6.50;99.90;;;;;;4854251;29;19928;-74
2022/12/22 05:49:18;;;;;;;;;;;6.50;99.90;;;;;;4852434;29;19931;-74
2022/12/22 05:51:44;;;;;;;;;;;6.50;99.90;;;;;;4855181;29;19976;-74
2022/12/22 05:54:10;;;;;;;;;;;6.50;99.90;;;;;;4870454;29;20341;-73
2022/12/22 05:56:35;;;;;;;;;;;6.50;99.90;;;;;;4860615;29;19924;-74
2022/12/22 05:59:01;;;;;;;;;;;6.40;99.90;;;;;;4855208;29;19931;-74
2022/12/22 06:01:27;;;;;;;;;;;6.40;99.90;;;;;;4865093;29;20409;-74
2022/12/22 06:03:52;;;;;;;;;;;6.40;99.90;;;;;;4847280;29;19932;-74
2022/12/22 06:06:18;;;;;;;;;;;6.40;99.90;;;;;;4852523;29;19923;-74
2022/12/22 06:08:43;;;;;;;;;;;6.30;99.90;;;;;;4870660;29;19928;-74
2022/12/22 06:11:09;;;;;;;;;;;6.30;99.90;;;;;;4850692;29;19924;-74
2022/12/22 06:13:34;;;;;;;;;;;6.20;99.90;;;;;;4854789;29;20417;-74
2022/12/22 06:16:00;;;;;;;;;;;6.20;99.90;;;;;;4855932;29;19927;-74
2022/12/22 06:18:27;;;;;;;;;;;6.10;99.90;;;;;;4837192;29;19999;-74
2022/12/22 06:20:53;;;;;;;;;;;6.10;99.90;;;;;;4855953;29;19957;-74
2022/12/22 06:23:19;;;;;;;;;;;6.00;99.90;;;;;;4852630;29;19959;-74
2022/12/22 06:25:58;;;;;;;;;;;6.00;99.90;;;;;;4852184;29;20265;-74
2022/12/22 06:28:24;;;;;;;;;;;5.90;99.90;;;;;;4862652;29;20004;-74
2022/12/22 06:30:49;;;;;;;;;;;5.90;99.90;;;;;;4859151;29;19936;-74
2022/12/22 06:33:15;;;;;;;;;;;5.80;99.90;;;;;;4854265;29;20009;-74
2022/12/22 06:35:40;;;;;;;;;;;5.70;99.90;;;;;;4854014;29;20281;-73
2022/12/22 06:38:06;;;;;;;;;;;5.60;99.90;;;;;;4870076;29;19963;-73
2022/12/22 06:40:31;;;;;;;;;;;5.60;99.90;;;;;;4873309;29;20304;-73
2022/12/22 06:43:09;;;;;;;;;;;5.50;99.90;;;;;;4854559;29;20027;-73
2022/12/22 06:45:39;;;;;;;;;;;5.50;99.90;;;;;;4861853;29;19928;-73
2022/12/22 06:48:05;;;;;;;;;;;5.40;99.90;;;;;;4869073;29;19928;-73
2022/12/22 06:50:31;;;;;;;;;;;5.40;99.90;;;;;;4856702;29;19932;-73
2022/12/22 06:52:57;;;;;;;;;;;5.40;99.90;;;;;;4873945;29;19924;-73
2022/12/22 06:55:23;;;;;;;;;;;5.30;99.90;;;;;;4872442;29;19927;-73
2022/12/22 06:57:48;;;;;;;;;;;5.30;99.90;;;;;;4858448;29;20292;-73
2022/12/22 07:00:14;;;;;;;;;;;5.20;99.90;;;;;;4852840;29;20010;-73
2022/12/22 07:02:40;;;;;;;;;;;5.20;99.90;;;;;;4857404;29;19954;-73
2022/12/22 07:05:05;;;;;;;;;;;5.10;99.90;;;;;;4873560;29;19984;-73
2022/12/22 07:07:31;;;;;;;;;;;5.10;99.90;;;;;;4873644;29;20258;-73
2022/12/22 07:09:56;;;;;;;;;;;4.90;99.90;;;;;;4839453;29;19924;-73
2022/12/22 07:12:22;;;;;;;;;;;4.90;99.90;;;;;;4866595;29;20031;-73
2022/12/22 07:14:48;;;;;;;;;;;4.80;99.90;;;;;;4853728;29;19924;-73
2022/12/22 07:17:14;;;;;;;;;;;4.70;99.90;;;;;;4858585;29;19934;-73
2022/12/22 07:19:39;;;;;;;;;;;4.70;99.90;;;;;;4872337;29;20396;-73
2022/12/22 07:22:05;;;;;;;;;;;4.60;99.90;;;;;;4855688;29;19963;-73
2022/12/22 07:24:31;;;;;;;;;;;4.60;99.90;;;;;;4857591;29;19927;-73
2022/12/22 07:26:56;;;;;;;;;;;4.60;99.90;;;;;;4842515;29;19928;-73
2022/12/22 07:29:22;;;;;;;;;;;4.50;99.90;;;;;;4858253;29;19923;-76
2022/12/22 07:31:47;;;;;;;;;;;4.50;99.90;;;;;;4853670;29;19928;-76
2022/12/22 07:34:13;;;;;;;;;;;4.50;99.90;;;;;;4868740;29;20260;-76
2022/12/22 07:36:39;;;;;;;;;;;4.50;99.90;;;;;;4842711;29;19928;-76
2022/12/22 07:39:04;;;;;;;;;;;4.50;99.90;;;;;;4841907;29;20023;-76
2022/12/22 07:44:14;;;;;;;;;;;4.40;99.90;;;;;;4870419;29;19934;-76
2022/12/22 07:46:40;;;;;;;;;;;4.40;99.90;;;;;;4872689;29;19932;-76
2022/12/22 07:51:50;;;;;;;;;;;4.40;99.90;;;;;;4865617;29;20015;-76
2022/12/22 07:54:16;;;;;;;;;;;4.30;99.90;;;;;;4871206;29;20046;-76
2022/12/22 07:56:42;;;;;;;;;;;4.30;99.90;;;;;;4856526;29;20388;-77
2022/12/22 07:59:08;;;;;;;;;;;4.30;99.90;;;;;;4856391;29;19946;-77
2022/12/22 08:01:34;;;;;;;;;;;4.30;99.90;;;;;;4845160;29;19928;-77
2022/12/22 08:04:00;;;;;;;;;;;4.30;99.90;;;;;;4876077;29;19931;-76
2022/12/22 08:06:25;;;;;;;;;;;4.30;99.90;;;;;;4863971;29;19931;-77
2022/12/22 08:08:51;;;;;;;;;;;4.30;99.90;;;;;;4857109;29;19924;-77
2022/12/22 08:11:17;;;;;;;;;;;4.40;99.90;;;;;;4834744;29;19935;-77
2022/12/22 08:13:43;;;;;;;;;;;4.40;99.90;;;;;;4867135;29;20042;-76
2022/12/22 08:16:09;;;;;;;;;;;4.40;99.90;;;;;;4854548;29;20019;-76
2022/12/22 08:18:35;;;;;;;;;;;4.40;99.90;;;;;;4871080;29;20512;-76
2022/12/22 08:21:02;;;;;;;;;;;4.40;99.90;;;;;;4856315;29;20010;-76
2022/12/22 08:23:28;;;;;;;;;;;4.40;99.90;;;;;;4871546;29;19928;-76
2022/12/22 08:26:02;;;;;;;;;;;4.40;99.90;;;;;;4867584;29;19931;-76
2022/12/22 08:28:30;;;;;;;;;;;4.40;99.90;;;;;;4868371;29;19928;-77
2022/12/22 08:30:57;;;;;;;;;;;4.30;99.90;;;;;;4871001;29;19927;-76
2022/12/22 08:33:22;;;;;;;;;;;4.30;99.90;;;;;;4872340;29;19924;-76
2022/12/22 08:35:48;;;;;;;;;;;4.30;99.90;;;;;;4851488;29;19974;-77
2022/12/22 08:38:14;;;;;;;;;;;4.30;99.90;;;;;;4854018;29;19927;-76
2022/12/22 08:40:41;;;;;;;;;;;4.40;99.90;;;;;;4854535;29;19952;-77
2022/12/22 08:43:07;;;;;;;;;;;4.40;99.90;;;;;;4855273;29;19954;-77
2022/12/22 08:45:33;;;;;;;;;;;4.40;99.90;;;;;;4855337;29;20289;-77
2022/12/22 08:47:58;;;;;;;;;;;4.40;99.90;;;;;;4867800;29;19923;-77
2022/12/22 08:50:24;;;;;;;;;;;4.50;99.90;;;;;;4871977;29;19938;-76
2022/12/22 08:52:50;;;;;;;;;;;4.50;99.90;;;;;;4860271;29;19928;-77
2022/12/22 08:55:15;;;;;;;;;;;4.50;99.90;;;;;;4872265;29;19944;-77
2022/12/22 08:57:41;;;;;;;;;;;4.60;99.90;;;;;;4853954;29;19961;-77
2022/12/22 09:00:07;;;;;;;;;;;4.50;99.90;;;;;;4865680;29;19938;-77
2022/12/22 09:02:33;;;;;;;;;;;4.60;99.90;;;;;;4865582;29;19923;-76
2022/12/22 09:04:59;;;;;;;;;;;4.60;99.90;;;;;;4855474;29;20219;-77
2022/12/22 09:07:25;;;;;;;;;;;4.60;99.90;;;;;;4872311;29;20345;-78
2022/12/22 09:09:50;;;;;;;;;;;4.60;99.90;;;;;;4853648;29;20333;-77
2022/12/22 09:12:16;;;;;;;;;;;4.70;99.90;;;;;;4856342;29;19983;-77
2022/12/22 09:14:42;;;;;;;;;;;4.70;99.90;;;;;;4856594;29;19923;-76
2022/12/22 09:17:07;;;;;;;;;;;4.80;99.90;;;;;;4854376;29;19923;-76
2022/12/22 09:19:33;;;;;;;;;;;4.90;99.90;;;;;;4838802;29;20225;-77
2022/12/22 09:21:59;;;;;;;;;;;4.90;99.90;;;;;;4877577;29;19983;-77
2022/12/22 09:24:24;;;;;;;;;;;5.00;99.90;;;;;;4867626;29;19938;-76
2022/12/22 09:26:50;;;;;;;;;;;5.10;99.90;;;;;;4852553;29;19927;-77
2022/12/22 09:29:16;;;;;;;;;;;5.10;99.90;;;;;;4862681;29;20248;-77
2022/12/22 09:31:41;;;;;;;;;;;5.10;99.90;;;;;;4850392;29;20019;-76
2022/12/22 09:34:07;;;;;;;;;;;5.20;99.90;;;;;;4856076;29;20275;-76
2022/12/22 09:36:33;;;;;;;;;;;5.20;99.90;;;;;;4869218;29;19924;-77
2022/12/22 09:39:03;;;;;;;;;;;5.20;99.90;;;;;;4865249;29;19928;-76
2022/12/22 09:41:30;;;;;;;;;;;5.30;99.90;;;;;;4884308;29;19924;-77
2022/12/22 09:43:56;;;;;;;;;;;5.30;99.90;;;;;;4856270;29;20060;-78
2022/12/22 09:46:23;;;;;;;;;;;5.40;99.90;;;;;;4868476;29;19932;-78
2022/12/22 09:48:50;;;;;;;;;;;5.40;99.90;;;;;;4871381;29;19928;-77
2022/12/22 09:51:16;;;;;;;;;;;5.50;99.90;;;;;;4840138;29;19931;-76
2022/12/22 09:53:47;;;;;;;;;;;5.50;99.90;;;;;;4849765;29;20266;-76
2022/12/22 09:56:14;;;;;;;;;;;5.50;99.90;;;;;;4855732;29;19928;-76
2022/12/22 09:58:40;;;;;;;;;;;5.60;99.90;;;;;;4855410;29;19924;-75
2022/12/22 10:01:06;;;;;;;;;;;5.60;99.90;;;;;;4870106;29;19934;-75
2022/12/22 10:03:42;;;;;;;;;;;5.70;99.90;;;;;;4855648;29;20308;-75
2022/12/22 10:06:11;;;;;;;;;;;5.70;99.90;;;;;;4856603;29;19930;-75
2022/12/22 10:08:39;;;;;;;;;;;5.80;99.90;;;;;;4875534;29;19924;-75
2022/12/22 10:11:05;;;;;;;;;;;5.80;99.90;;;;;;4893833;29;19939;-74
2022/12/22 10:13:31;;;;;;;;;;;5.90;99.90;;;;;;4882641;29;20383;-74
2022/12/22 10:15:56;;;;;;;;;;;5.90;99.90;;;;;;4873137;29;19976;-75
2022/12/22 10:18:26;;;;;;;;;;;5.90;99.90;;;;;;4874062;29;19992;-75
2022/12/22 10:21:03;;;;;;;;;;;5.80;99.90;;;;;;4888526;29;19924;-74
2022/12/22 10:23:29;;;;;;;;;;;5.80;99.90;;;;;;4856650;29;20324;-75
2022/12/22 10:25:55;;;;;;;;;;;5.80;99.90;;;;;;4875380;29;20396;-75
2022/12/22 10:28:25;;;;;;;;;;;5.80;99.90;;;;;;4859147;29;20361;-75
2022/12/22 10:31:08;;;;;;;;;;;5.80;99.90;;;;;;4863325;29;19928;-74
2022/12/22 10:33:33;;;;;;;;;;;5.80;99.90;;;;;;4864687;29;19951;-74
2022/12/22 10:35:59;;;;;;;;;;;5.80;99.90;;;;;;4840408;29;19931;-75
2022/12/22 10:38:25;;;;;;;;;;;5.80;99.90;;;;;;4870752;29;19934;-75
2022/12/22 10:40:55;;;;;;;;;;;5.80;99.90;;;;;;4855810;29;20011;-75
2022/12/22 10:43:36;;;;;;;;;;;5.80;99.90;;;;;;4855499;29;19932;-75
2022/12/22 10:46:02;;;;;;;;;;;5.80;99.90;;;;;;4862164;29;20504;-75
2022/12/22 10:48:32;;;;;;;;;;;5.90;99.90;;;;;;4854913;29;20210;-75
2022/12/22 10:50:58;;;;;;;;;;;5.90;99.90;;;;;;4856762;29;20003;-75
2022/12/22 10:53:43;;;;;;;;;;;6.00;99.90;;;;;;4858180;29;20425;-75
2022/12/22 10:56:17;;;;;;;;;;;6.00;99.90;;;;;;4867913;29;19927;-75
2022/12/22 10:58:47;;;;;;;;;;;6.10;99.90;;;;;;4855561;29;19923;-75
2022/12/22 11:01:21;;;;;;;;;;;6.10;99.90;;;;;;4866557;29;19923;-74
2022/12/22 11:03:46;;;;;;;;;;;6.20;99.90;;;;;;4866827;29;20440;-74
2022/12/22 11:06:12;;;;;;;;;;;6.30;99.90;;;;;;4852538;29;20018;-74
2022/12/22 11:08:38;;;;;;;;;;;6.30;99.90;;;;;;4856789;29;20380;-74
2022/12/22 11:11:16;;;;;;;;;;;6.40;99.90;;;;;;4856086;29;19939;-74
2022/12/22 11:13:57;;;;;;;;;;;6.50;99.90;;;;;;4870732;29;19975;-75
2022/12/22 11:16:42;;;;;;;;;;;6.50;99.90;;;;;;4871037;29;19924;-75
2022/12/22 11:19:30;;;;;;;;;;;6.50;99.90;;;;;;4872244;29;19931;-75
2022/12/22 11:21:56;;;;;;;;;;;6.50;99.90;;;;;;4846700;29;19960;-75
2022/12/22 11:24:38;;;;;;;;;;;6.60;99.90;;;;;;4855901;29;20182;-75
2022/12/22 11:27:17;;;;;;;;;;;6.60;99.90;;;;;;4857676;29;20333;-75
2022/12/22 11:29:42;;;;;;;;;;;6.70;99.90;;;;;;4869519;29;19923;-75
2022/12/22 11:32:17;;;;;;;;;;;6.70;99.90;;;;;;4857401;29;20049;-74
2022/12/22 11:35:02;;;;;;;;;;;6.70;99.90;;;;;;4873291;29;20006;-74
2022/12/22 11:37:43;;;;;;;;;;;6.80;99.90;;;;;;4872207;29;19927;-76
2022/12/22 11:40:28;;;;;;;;;;;6.80;99.90;;;;;;4864598;29;19928;-77
2022/12/22 11:43:00;;;;;;;;;;;6.90;99.90;;;;;;4868921;29;19959;-77
2022/12/22 11:45:36;;;;;;;;;;;6.90;99.90;;;;;;4873454;29;20373;-76
2022/12/22 11:48:14;;;;;;;;;;;7.00;99.90;;;;;;4854532;29;19950;-77
2022/12/22 11:50:45;;;;;;;;;;;7.00;99.90;;;;;;4856298;29;19931;-75
2022/12/22 11:53:17;;;;;;;;;;;7.10;99.90;;;;;;4879661;29;19975;-76
2022/12/22 11:55:47;;;;;;;;;;;7.10;99.90;;;;;;4871133;29;20043;-75
2022/12/22 11:58:22;;;;;;;;;;;7.20;99.90;;;;;;4875756;29;20356;-75
2022/12/22 12:01:00;;;;;;;;;;;7.20;99.90;;;;;;4869362;29;19935;-75
2022/12/22 12:03:37;;;;;;;;;;;7.20;99.90;;;;;;4855481;29;19928;-76
2022/12/22 12:06:05;;;;;;;;;;;7.20;99.90;;;;;;4869579;29;19963;-76
2022/12/22 12:08:31;;;;;;;;;;;7.20;99.90;;;;;;4855412;29;19939;-76
2022/12/22 12:11:05;;;;;;;;;;;7.10;99.90;;;;;;4870053;29;19924;-75
2022/12/22 12:13:34;;;;;;;;;;;7.10;99.90;;;;;;4869676;29;19974;-76
2022/12/22 12:16:22;;;;;;;;;;;7.00;99.90;;;;;;4872196;29;19939;-76
2022/12/22 12:18:56;;;;;;;;;;;7.00;99.90;;;;;;4884864;29;19931;-75
2022/12/22 12:21:24;;;;;;;;;;;7.00;99.90;;;;;;4869382;29;19954;-76
2022/12/22 12:24:09;;;;;;;;;;;7.00;99.90;;;;;;4863920;29;20308;-76
2022/12/22 12:26:43;;;;;;;;;;;7.00;99.90;;;;;;4870281;29;19927;-76
2022/12/22 12:29:15;;;;;;;;;;;7.10;99.90;;;;;;4856634;29;19939;-76
2022/12/22 12:31:44;;;;;;;;;;;7.10;99.90;;;;;;4886912;29;19931;-76
2022/12/22 12:34:11;;;;;;;;;;;7.20;99.90;;;;;;4866019;29;19927;-76
2022/12/22 12:36:40;;;;;;;;;;;7.30;99.90;;;;;;4870733;29;19924;-76
2022/12/22 12:39:05;;;;;;;;;;;7.40;99.90;;;;;;4867123;29;19964;-76
2022/12/22 12:41:43;;;;;;;;;;;7.50;99.90;;;;;;4855944;29;19927;-76
2022/12/22 12:44:11;;;;;;;;;;;7.70;99.90;;;;;;4854213;29;19986;-76
2022/12/22 12:46:49;;;;;;;;;;;7.80;99.90;;;;;;4871818;29;19923;-76
2022/12/22 12:49:33;;;;;;;;;;;7.90;99.90;;;;;;4856246;29;19924;-76
2022/12/22 12:52:00;;;;;;;;;;;8.00;99.90;;;;;;4864391;29;19932;-75
2022/12/22 12:54:28;;;;;;;;;;;8.00;99.90;;;;;;4866634;29;19935;-76
2022/12/22 12:56:58;;;;;;;;;;;8.10;99.90;;;;;;4855888;29;19975;-75
2022/12/22 12:59:40;;;;;;;;;;;8.10;99.90;;;;;;5088113;27;2037558;-77
2022/12/22 13:02:25;;;;;;;;;;;8.10;99.90;;;;;;5130236;27;19923;-75
2022/12/22 13:05:00;;;;;;;;;;;8.10;99.90;;;;;;5103647;27;19923;-76
2022/12/22 13:07:44;;;;;;;;;;;8.10;99.90;;;;;;5108909;27;20440;-76
2022/12/22 13:10:20;;;;;;;;;;;8.10;99.90;;;;;;5121221;27;20331;-77
2022/12/22 13:12:50;;;;;;;;;;;8.10;99.90;;;;;;5131776;27;19923;-76
2022/12/22 13:15:30;;;;;;;;;;;8.10;99.90;;;;;;5125306;27;19923;-76
2022/12/22 13:17:56;;;;;;;;;;;8.00;99.90;;;;;;5129680;27;19984;-76
2022/12/22 13:20:35;;;;;;;;;;;8.00;99.90;;;;;;5109796;27;19927;-75
2022/12/22 13:23:02;;;;;;;;;;;8.00;99.90;;;;;;5127536;27;19981;-75
2022/12/22 13:25:48;;;;;;;;;;;8.10;99.90;;;;;;5132087;27;19919;-75
2022/12/22 13:28:15;;;;;;;;;;;8.10;99.90;;;;;;5116247;27;20010;-76
2022/12/22 13:30:44;;;;;;;;;;;8.10;99.90;;;;;;5108145;27;19968;-76
2022/12/22 13:33:11;;;;;;;;;;;8.10;99.90;;;;;;5125435;27;19919;-76
2022/12/22 13:35:38;;;;;;;;;;;8.20;99.90;;;;;;5079127;27;20440;-75
2022/12/22 13:38:04;;;;;;;;;;;8.20;99.90;;;;;;5124352;27;19963;-75
2022/12/22 13:40:31;;;;;;;;;;;8.30;99.90;;;;;;5124843;27;20068;-75
2022/12/22 13:43:04;;;;;;;;;;;8.40;99.90;;;;;;5108042;27;19919;-75
2022/12/22 13:45:30;;;;;;;;;;;8.40;99.90;;;;;;5113236;27;19926;-75
2022/12/22 13:47:56;;;;;;;;;;;8.40;99.90;;;;;;5117611;28;20458;-75
2022/12/22 13:50:32;;;;;;;;;;;8.40;99.90;;;;;;5101887;27;19930;-76
2022/12/22 13:52:57;;;;;;;;;;;8.50;99.90;;;;;;5104866;27;19962;-76
2022/12/22 13:55:24;;;;;;;;;;;8.50;99.90;;;;;;5124327;27;20396;-76
2022/12/22 13:57:51;;;;;;;;;;;8.50;99.90;;;;;;5107586;27;19989;-75
2022/12/22 14:00:21;;;;;;;;;;;8.50;99.90;;;;;;5102444;27;19924;-75
2022/12/22 14:02:47;;;;;;;;;;;8.50;99.90;;;;;;5106335;27;19923;-75
2022/12/22 14:05:14;;;;;;;;;;;8.40;99.90;;;;;;5124744;27;20280;-74
2022/12/22 14:07:55;;;;;;;;;;;8.30;99.90;;;;;;5120405;27;20290;-75
2022/12/22 14:10:25;;;;;;;;;;;8.30;99.90;;;;;;5109220;27;19920;-75
2022/12/22 14:12:51;;;;;;;;;;;8.20;99.90;;;;;;5109819;27;19928;-75
2022/12/22 14:15:18;;;;;;;;;;;8.10;99.90;;;;;;5090247;28;19923;-75
2022/12/22 14:17:43;;;;;;;;;;;8.00;99.90;;;;;;5103264;27;19924;-74
2022/12/22 14:20:35;;;;;;;;;;;7.90;99.90;;;;;;5110255;27;20060;-74
2022/12/22 14:23:01;;;;;;;;;;;7.90;99.90;;;;;;5104567;27;20321;-74
2022/12/22 14:25:34;;;;;;;;;;;7.80;99.90;;;;;;5093540;27;19920;-74
2022/12/22 14:28:01;;;;;;;;;;;7.80;99.90;;;;;;5093857;27;20363;-74
2022/12/22 14:30:28;;;;;;;;;;;7.70;99.90;;;;;;5110595;27;19946;-74
2022/12/22 14:32:55;;;;;;;;;;;7.70;99.90;;;;;;5110093;27;19923;-75
2022/12/22 14:35:20;;;;;;;;;;;7.70;99.90;;;;;;5094072;27;20052;-75
2022/12/22 14:37:50;;;;;;;;;;;7.60;99.90;;;;;;5109124;27;20042;-75
2022/12/22 14:40:32;;;;;;;;;;;7.50;99.90;;;;;;5110120;27;20043;-74
2022/12/22 14:42:59;;;;;;;;;;;7.50;99.90;;;;;;5092811;27;20009;-74
2022/12/22 14:45:24;;;;;;;;;;;7.40;99.90;;;;;;5100795;27;19919;-74
2022/12/22 14:47:51;;;;;;;;;;;7.40;99.90;;;;;;5084748;27;19927;-74
2022/12/22 14:50:21;;;;;;;;;;;7.30;99.90;;;;;;5092392;27;19974;-74
2022/12/22 14:52:49;;;;;;;;;;;7.30;99.90;;;;;;5108085;27;20374;-74
2022/12/22 14:55:27;;;;;;;;;;;7.30;99.90;;;;;;5108293;27;19958;-74
2022/12/22 14:57:56;;;;;;;;;;;7.20;99.90;;;;;;5092669;27;19934;-74
2022/12/22 15:00:22;;;;;;;;;;;7.20;99.90;;;;;;5092491;27;20363;-74
2022/12/22 15:02:49;;;;;;;;;;;7.10;99.90;;;;;;5088297;27;20230;-74
2022/12/22 15:05:22;;;;;;;;;;;7.10;99.90;;;;;;5109775;27;19930;-74
2022/12/22 15:07:48;;;;;;;;;;;7.00;99.90;;;;;;5082129;27;19919;-74
2022/12/22 15:10:14;;;;;;;;;;;6.90;99.90;;;;;;5109340;27;20373;-74
2022/12/22 15:12:39;;;;;;;;;;;6.90;99.90;;;;;;5109275;27;19931;-75
2022/12/22 15:15:16;;;;;;;;;;;6.80;99.90;;;;;;5074583;27;19963;-75
2022/12/22 15:17:42;;;;;;;;;;;6.80;99.90;;;;;;5084810;27;19924;-74
2022/12/22 15:20:12;;;;;;;;;;;6.80;99.90;;;;;;5091926;27;19931;-74
2022/12/22 15:22:37;;;;;;;;;;;6.70;99.90;;;;;;5103362;27;20276;-74
2022/12/22 15:25:10;;;;;;;;;;;6.70;99.90;;;;;;5097489;28;20030;-74
2022/12/22 15:27:36;;;;;;;;;;;6.70;99.90;;;;;;5088294;27;20397;-75
2022/12/22 15:30:02;;;;;;;;;;;6.70;99.90;;;;;;5087499;27;19919;-74
2022/12/22 15:32:28;;;;;;;;;;;6.60;99.90;;;;;;5070036;28;19959;-74
2022/12/22 15:34:53;;;;;;;;;;;6.60;99.90;;;;;;5071971;28;19970;-74
2022/12/22 15:37:19;;;;;;;;;;;6.60;99.90;;;;;;5101920;27;20166;-74
2022/12/22 15:39:45;;;;;;;;;;;6.50;99.90;;;;;;5075065;27;20671;-74
2022/12/22 15:42:11;;;;;;;;;;;6.50;99.90;;;;;;5091474;27;19926;-74
2022/12/22 15:44:36;;;;;;;;;;;6.40;99.90;;;;;;5074989;27;19919;-74
2022/12/22 15:47:02;;;;;;;;;;;6.40;99.90;;;;;;5092588;27;19923;-74
2022/12/22 15:49:28;;;;;;;;;;;6.30;99.90;;;;;;5108625;27;20201;-74
2022/12/22 15:51:56;;;;;;;;;;;6.20;99.90;;;;;;5091457;27;20374;-74
2022/12/22 15:54:23;;;;;;;;;;;6.20;99.90;;;;;;5108019;27;19919;-74
2022/12/22 15:56:50;;;;;;;;;;;6.20;99.90;;;;;;5109222;27;20432;-74
2022/12/22 15:59:18;;;;;;;;;;;6.10;99.90;;;;;;5101254;28;20080;-74
2022/12/22 16:01:44;;;;;;;;;;;6.10;99.90;;;;;;5080965;27;20009;-74
2022/12/22 16:04:09;;;;;;;;;;;6.00;99.90;;;;;;5091434;27;19958;-74
2022/12/22 16:06:35;;;;;;;;;;;6.00;99.90;;;;;;5091421;27;19923;-74
2022/12/22 16:09:05;;;;;;;;;;;6.00;99.90;;;;;;5109300;27;19919;-74
2022/12/22 16:11:30;;;;;;;;;;;5.90;99.90;;;;;;5089966;27;19919;-74
2022/12/22 16:13:56;;;;;;;;;;;5.80;99.90;;;;;;5073148;27;19946;-74
2022/12/22 16:16:21;;;;;;;;;;;5.80;99.90;;;;;;5080986;27;20157;-74
2022/12/22 16:18:47;;;;;;;;;;;5.80;99.90;;;;;;5095800;27;19931;-75
2022/12/22 16:21:14;;;;;;;;;;;5.70;99.90;;;;;;5073557;28;19978;-75
2022/12/22 16:23:41;;;;;;;;;;;5.70;99.90;;;;;;5090856;27;19919;-75
2022/12/22 16:26:06;;;;;;;;;;;5.60;99.90;;;;;;5088226;28;19919;-74
2022/12/22 16:28:32;;;;;;;;;;;5.60;99.90;;;;;;5091828;27;19945;-74
2022/12/22 16:30:58;;;;;;;;;;;5.60;99.90;;;;;;5087145;27;19930;-74
2022/12/22 16:33:24;;;;;;;;;;;5.60;99.90;;;;;;5090889;27;19919;-74
2022/12/22 16:35:49;;;;;;;;;;;5.60;99.90;;;;;;5068831;28;19923;-74
2022/12/22 16:38:15;;;;;;;;;;;5.60;99.90;;;;;;5098160;27;19989;-74
2022/12/22 16:40:45;;;;;;;;;;;5.60;99.90;;;;;;5080483;27;19935;-74
2022/12/22 16:43:14;;;;;;;;;;;5.70;99.90;;;;;;5099073;27;20402;-74
2022/12/22 16:45:41;;;;;;;;;;;5.60;99.90;;;;;;5091000;27;20249;-74
2022/12/22 16:48:10;;;;;;;;;;;5.60;99.90;;;;;;5107889;27;19927;-74
2022/12/22 16:50:36;;;;;;;;;;;5.70;99.90;;;;;;5088733;27;19966;-74
2022/12/22 16:53:03;;;;;;;;;;;5.70;99.90;;;;;;5091103;27;19959;-74
2022/12/22 16:55:29;;;;;;;;;;;5.70;99.90;;;;;;5088960;28;19923;-74
2022/12/22 16:57:55;;;;;;;;;;;5.70;99.90;;;;;;5091684;28;19934;-74
2022/12/22 17:00:22;;;;;;;;;;;5.70;99.90;;;;;;5088432;28;20353;-74
2022/12/22 17:02:55;;;;;;;;;;;5.70;99.90;;;;;;5090468;28;19926;-74
2022/12/22 17:05:26;;;;;;;;;;;5.70;99.90;;;;;;5088087;28;19923;-74
2022/12/22 17:07:52;;;;;;;;;;;5.70;99.90;;;;;;5091740;28;20416;-76
2022/12/22 17:10:19;;;;;;;;;;;5.70;99.90;;;;;;5090437;28;19963;-74
2022/12/22 17:12:45;;;;;;;;;;;5.70;99.90;;;;;;5107666;28;19958;-74
2022/12/22 17:15:15;;;;;;;;;;;5.70;99.90;;;;;;5090603;28;19930;-74
2022/12/22 17:17:41;;;;;;;;;;;5.80;99.90;;;;;;5091010;28;19934;-74
2022/12/22 17:20:08;;;;;;;;;;;5.80;99.90;;;;;;5107620;28;19924;-75
2022/12/22 17:22:34;;;;;;;;;;;5.80;99.90;;;;;;5092218;28;20291;-75
2022/12/22 17:25:00;;;;;;;;;;;5.80;99.90;;;;;;5091054;28;19920;-75
2022/12/22 17:27:27;;;;;;;;;;;5.80;99.90;;;;;;5090707;28;19974;-75
2022/12/22 17:29:53;;;;;;;;;;;5.80;99.90;;;;;;5107669;28;19931;-74
2022/12/22 17:32:19;;;;;;;;;;;5.90;99.90;;;;;;5089840;28;19930;-74
2022/12/22 17:34:45;;;;;;;;;;;5.90;99.90;;;;;;5103202;28;19923;-75
2022/12/22 17:37:15;;;;;;;;;;;5.90;99.90;;;;;;5090970;28;19976;-74
2022/12/22 17:39:42;;;;;;;;;;;5.90;99.90;;;;;;5093325;28;20298;-74
2022/12/22 17:42:21;;;;;;;;;;;5.90;99.90;;;;;;5095648;28;19978;-75
2022/12/22 17:44:47;;;;;;;;;;;5.90;99.90;;;;;;5108933;27;20387;-74
2022/12/22 17:47:14;;;;;;;;;;;5.90;99.90;;;;;;5094078;27;19976;-74
2022/12/22 17:49:40;;;;;;;;;;;5.90;99.90;;;;;;5094557;27;19920;-74
2022/12/22 17:52:12;;;;;;;;;;;5.90;99.90;;;;;;5109431;27;20099;-74
2022/12/22 17:54:38;;;;;;;;;;;5.90;99.90;;;;;;5095299;28;19924;-74
2022/12/22 17:57:05;;;;;;;;;;;5.90;99.90;;;;;;5091916;27;19930;-74
2022/12/22 17:59:31;;;;;;;;;;;5.90;99.90;;;;;;5094922;27;19923;-74
2022/12/22 18:01:57;;;;;;;;;;;5.90;99.90;;;;;;5091079;28;20334;-75
2022/12/22 18:04:23;;;;;;;;;;;5.90;99.90;;;;;;5107234;27;19927;-76
2022/12/22 18:06:48;;;;;;;;;;;5.90;99.90;;;;;;5090959;28;20283;-76
2022/12/22 18:09:18;;;;;;;;;;;5.90;99.90;;;;;;5087582;27;19995;-76
2022/12/22 18:11:44;;;;;;;;;;;5.90;99.90;;;;;;5109045;27;20325;-75
2022/12/22 18:14:11;;;;;;;;;;;5.90;99.90;;;;;;5110993;27;19927;-75
2022/12/22 18:16:36;;;;;;;;;;;6.00;99.90;;;;;;5094561;27;19919;-75